Terminal Aerodrome Forecast
Issued by NWS Jackson, MS

Home | Current Version | Previous Version | Text Only | Print | Product List | Glossary On
Versions: 1 2 3 4 5 6 7 8 9 10 11 12 13
000
FTUS44 KJAN 171740
TAFGWO
TAF
KGWO 171740Z 1718/1818 17010KT P6SM SCT050 SCT090
     FM180600 19015G20KT P6SM BKN100
     FM181100 19017G25KT P6SM OVC025=

USA.gov is the U.S. government's official web portal to all federal, state and local government web resources and services.